Time;durP1;ratioP1;P1;durP2;ratioP2;P2;SDS_P1;SDS_P2;PMS_P1;PMS_P2;Temp;Humidity;BMP_temperature;BMP_pressure;BME280_temperature;BME280_humidity;BME280_pressure;Samples;Min_cycle;Max_cycle;Signal;HPM_P1;HPM_P2
2021/04/14 00:00:31;;;;;;;13.73;7.65;;;;;;;-1.53;100.00;97098.28;1028197;28;20025;-59
2021/04/14 00:01:02;;;;;;;10.70;6.50;;;;;;;-1.52;100.00;97099.09;1028210;28;20284;-60
2021/04/14 00:01:33;;;;;;;13.15;6.93;;;;;;;-1.51;100.00;97100.81;1031226;28;20037;-60
2021/04/14 00:02:04;;;;;;;10.65;6.65;;;;;;;-1.52;100.00;97099.09;1028083;28;20034;-60
2021/04/14 00:02:35;;;;;;;13.50;6.32;;;;;;;-1.52;100.00;97099.09;1036079;28;20113;-60
2021/04/14 00:03:09;;;;;;;11.27;6.50;;;;;;;-1.54;100.00;97096.56;1040240;28;20039;-62
2021/04/14 00:03:40;;;;;;;11.02;6.45;;;;;;;-1.55;100.00;97094.91;1035899;28;20042;-61
2021/04/14 00:04:11;;;;;;;11.23;6.60;;;;;;;-1.55;100.00;97094.91;1024145;28;20251;-60
2021/04/14 00:04:42;;;;;;;11.60;6.88;;;;;;;-1.56;100.00;97094.97;1020161;29;20019;-60
2021/04/14 00:05:14;;;;;;;12.98;7.28;;;;;;;-1.55;100.00;97101.84;1028139;28;20022;-62
2021/04/14 00:05:45;;;;;;;12.27;7.50;;;;;;;-1.55;100.00;97100.13;1023988;28;20426;-62
2021/04/14 00:06:16;;;;;;;11.57;7.55;;;;;;;-1.55;100.00;97096.63;1028111;28;20054;-61
2021/04/14 00:06:46;;;;;;;13.07;7.55;;;;;;;-1.55;100.00;97099.25;1028109;28;20384;-60
2021/04/14 00:07:17;;;;;;;12.82;7.57;;;;;;;-1.55;100.00;97099.25;1028158;28;20030;-60
2021/04/14 00:07:48;;;;;;;12.18;7.60;;;;;;;-1.55;100.00;97096.63;1040167;28;20052;-60
2021/04/14 00:08:19;;;;;;;12.43;7.90;;;;;;;-1.55;100.00;97094.91;1028115;28;20575;-61
2021/04/14 00:08:49;;;;;;;12.15;7.97;;;;;;;-1.55;100.00;97099.25;1028068;28;20029;-61
2021/04/14 00:09:20;;;;;;;12.57;7.38;;;;;;;-1.56;100.00;97100.19;1024108;29;20027;-61
2021/04/14 00:09:51;;;;;;;14.10;7.82;;;;;;;-1.56;100.00;97097.56;1027925;28;20046;-60
2021/04/14 00:10:25;;;;;;;12.73;7.80;;;;;;;-1.57;100.00;97094.13;1028053;28;20032;-60
2021/04/14 00:10:55;;;;;;;12.65;7.18;;;;;;;-1.60;100.00;97093.41;1032007;28;20415;-62
2021/04/14 00:11:26;;;;;;;12.45;7.45;;;;;;;-1.59;100.00;97097.72;1032037;28;20022;-60
2021/04/14 00:11:57;;;;;;;12.07;7.63;;;;;;;-1.59;100.00;97095.09;1027955;28;20025;-61
2021/04/14 00:12:28;;;;;;;12.55;6.97;;;;;;;-1.59;100.00;97092.50;1024084;29;20031;-60
2021/04/14 00:13:00;;;;;;;12.05;7.38;;;;;;;-1.61;100.00;97096.94;1036195;28;20068;-60
2021/04/14 00:13:34;;;;;;;13.02;7.93;;;;;;;-1.60;100.00;97086.47;1036096;28;20502;-61
2021/04/14 00:14:07;;;;;;;15.00;8.25;;;;;;;-1.60;100.00;97091.66;1027040;28;20085;-60
2021/04/14 00:14:38;;;;;;;12.88;7.60;;;;;;;-1.59;100.00;97092.50;1028072;28;20109;-61
2021/04/14 00:15:13;;;;;;;13.35;7.50;;;;;;;-1.60;100.00;97096.88;1032025;28;20018;-60
2021/04/14 00:15:48;;;;;;;12.65;7.25;;;;;;;-1.59;100.00;97095.94;1027467;28;20058;-59
2021/04/14 00:16:21;;;;;;;14.75;7.43;;;;;;;-1.60;100.00;97094.28;1027785;28;20031;-62
2021/04/14 00:16:52;;;;;;;12.73;8.15;;;;;;;-1.60;100.00;97088.19;1028024;28;20085;-61
2021/04/14 00:17:23;;;;;;;11.98;7.45;;;;;;;-1.61;100.00;97094.34;1024081;29;20027;-60
2021/04/14 00:17:54;;;;;;;12.18;7.13;;;;;;;-1.69;100.00;97078.22;1020188;29;20024;-61
2021/04/14 00:18:25;;;;;;;12.30;7.93;;;;;;;-1.64;100.00;97089.28;1031916;28;20023;-60
2021/04/14 00:18:56;;;;;;;12.43;8.00;;;;;;;-1.65;100.00;97093.66;1024034;28;20410;-60
2021/04/14 00:19:26;;;;;;;10.77;7.13;;;;;;;-1.67;100.00;97087.66;1032026;28;20058;-60
2021/04/14 00:19:57;;;;;;;13.52;7.50;;;;;;;-1.67;100.00;97098.09;1036233;28;20018;-60
2021/04/14 00:20:28;;;;;;;13.50;7.95;;;;;;;-1.68;100.00;97092.94;1027900;28;20509;-61
2021/04/14 00:20:59;;;;;;;15.52;8.02;;;;;;;-1.80;100.00;97076.13;1027999;28;20030;-61
2021/04/14 00:21:30;;;;;;;14.52;8.38;;;;;;;-1.69;100.00;97092.09;1032066;28;20369;-61
2021/04/14 00:22:01;;;;;;;13.68;7.25;;;;;;;-1.66;100.00;97086.75;1032071;28;20025;-61
2021/04/14 00:22:32;;;;;;;14.23;8.30;;;;;;;-1.68;100.00;97088.56;1035920;28;20090;-59
2021/04/14 00:23:04;;;;;;;13.25;7.32;;;;;;;-1.66;100.00;97091.13;1031988;28;20089;-60
2021/04/14 00:23:35;;;;;;;13.70;7.38;;;;;;;-1.66;100.00;97093.72;1023887;28;20027;-60
2021/04/14 00:24:06;;;;;;;15.93;8.35;;;;;;;-1.69;100.00;97089.47;1027944;28;20023;-61
2021/04/14 00:24:37;;;;;;;14.35;7.68;;;;;;;-1.72;100.00;97095.69;1023938;29;20049;-60
2021/04/14 00:25:11;;;;;;;13.68;7.88;;;;;;;-1.73;100.00;97093.16;1020112;29;20023;-61
2021/04/14 00:25:44;;;;;;;11.98;8.13;;;;;;;-1.74;100.00;97088.88;1023939;29;20023;-60
2021/04/14 00:26:16;;;;;;;13.25;7.90;;;;;;;-1.71;100.00;97096.53;1028052;28;20027;-62
2021/04/14 00:26:48;;;;;;;14.65;8.43;;;;;;;-1.79;100.00;97065.66;1027984;28;20026;-60
2021/04/14 00:27:18;;;;;;;15.05;8.60;;;;;;;-1.67;100.00;97084.19;1024195;28;20604;-60
2021/04/14 00:27:49;;;;;;;13.30;7.60;;;;;;;-1.65;100.00;97087.59;1020052;29;20556;-61
2021/04/14 00:28:22;;;;;;;12.80;8.18;;;;;;;-1.66;100.00;97085.91;1024093;28;20111;-62
2021/04/14 00:28:52;;;;;;;14.40;8.18;;;;;;;-1.64;100.00;97089.28;1027850;28;20054;-61
2021/04/14 00:29:23;;;;;;;13.73;8.50;;;;;;;-1.62;100.00;97087.44;1028105;28;20422;-60
2021/04/14 00:29:54;;;;;;;14.57;7.95;;;;;;;-1.60;100.00;97089.06;1024017;28;20096;-61
2021/04/14 00:30:25;;;;;;;13.85;7.53;;;;;;;-1.58;100.00;97094.22;1028114;28;20023;-61
2021/04/14 00:30:56;;;;;;;13.60;7.97;;;;;;;-1.56;100.00;97088.00;1027916;28;20018;-60
2021/04/14 00:32:08;;;;;;;13.18;8.18;;;;;;;-1.56;100.00;97088.00;1028039;28;20685;-60
2021/04/14 00:32:38;;;;;;;13.88;8.30;;;;;;;-1.58;100.00;97083.78;1031963;28;20010;-61
2021/04/14 00:33:09;;;;;;;13.82;8.23;;;;;;;-1.55;100.00;97088.81;1028050;28;20605;-60
2021/04/14 00:33:41;;;;;;;14.20;8.38;;;;;;;-1.53;100.00;97089.63;1035816;28;20014;-60
2021/04/14 00:34:17;;;;;;;15.10;8.60;;;;;;;-1.50;100.00;97086.84;1036104;28;20450;-61
2021/04/14 00:34:48;;;;;;;15.18;9.10;;;;;;;-1.48;100.00;97095.47;1019910;29;20323;-60
2021/04/14 00:35:20;;;;;;;12.68;7.80;;;;;;;-1.47;100.00;97086.72;1019966;29;20016;-61
2021/04/14 00:35:53;;;;;;;17.30;9.68;;;;;;;-1.47;100.00;97084.09;1019971;29;20007;-60
2021/04/14 00:36:24;;;;;;;13.10;8.13;;;;;;;-1.45;100.00;97087.47;1024035;29;20015;-61
2021/04/14 00:36:54;;;;;;;12.38;8.13;;;;;;;-1.43;100.00;97087.41;1027896;28;20018;-61
2021/04/14 00:37:25;;;;;;;14.63;8.48;;;;;;;-1.41;100.00;97094.25;1027982;28;20073;-60
2021/04/14 00:37:56;;;;;;;13.68;7.88;;;;;;;-1.39;100.00;97091.56;1027970;28;20014;-61
2021/04/14 00:38:27;;;;;;;13.55;8.43;;;;;;;-1.38;100.00;97095.84;1028052;28;20011;-61
2021/04/14 00:38:57;;;;;;;12.68;8.43;;;;;;;-1.37;100.00;97094.94;1027850;28;20011;-60
2021/04/14 00:39:28;;;;;;;14.40;8.23;;;;;;;-1.36;100.00;97094.88;1028033;28;20019;-60
2021/04/14 00:39:59;;;;;;;14.65;8.40;;;;;;;-1.34;100.00;97093.03;1032009;28;20097;-61
2021/04/14 00:40:32;;;;;;;13.55;8.20;;;;;;;-1.35;100.00;97086.13;1028010;28;20014;-61
2021/04/14 00:41:07;;;;;;;11.90;8.07;;;;;;;-1.33;100.00;97094.69;1027811;28;20034;-62
2021/04/14 00:41:38;;;;;;;12.30;7.55;;;;;;;-1.30;100.00;97090.28;1028003;28;20074;-62
2021/04/14 00:42:09;;;;;;;16.08;8.00;;;;;;;-1.32;100.00;97090.34;1027939;28;20467;-61
2021/04/14 00:42:40;;;;;;;15.00;8.10;;;;;;;-1.31;100.00;97089.41;1019968;29;20016;-60
2021/04/14 00:43:14;;;;;;;16.52;8.32;;;;;;;-1.28;100.00;97088.44;1023812;29;20077;-62
2021/04/14 00:43:45;;;;;;;15.65;8.10;;;;;;;-1.28;100.00;97083.22;1027893;28;20023;-60
2021/04/14 00:44:17;;;;;;;13.18;7.78;;;;;;;-1.26;100.00;97082.22;1031984;28;20093;-59
2021/04/14 00:44:48;;;;;;;12.15;7.18;;;;;;;-1.23;100.00;97083.84;1024042;28;20401;-60
2021/04/14 00:45:19;;;;;;;11.23;7.10;;;;;;;-1.24;100.00;97082.97;1023797;29;20117;-61
2021/04/14 00:45:50;;;;;;;11.63;7.50;;;;;;;-1.21;100.00;97085.44;1027962;28;20039;-60
2021/04/14 00:46:20;;;;;;;13.15;7.15;;;;;;;-1.19;100.00;97085.38;1027909;28;20413;-60
2021/04/14 00:46:51;;;;;;;10.77;6.55;;;;;;;-1.19;100.00;97078.38;1027870;28;20023;-59
2021/04/14 00:47:22;;;;;;;10.55;7.00;;;;;;;-1.19;100.00;97085.38;1031821;28;20499;-61
2021/04/14 00:47:53;;;;;;;9.77;6.05;;;;;;;-1.16;100.00;97080.84;1036022;28;20037;-61
2021/04/14 00:48:24;;;;;;;13.80;7.13;;;;;;;-1.20;100.00;97083.69;1023905;29;20035;-61
2021/04/14 00:48:55;;;;;;;15.40;6.88;;;;;;;-1.19;100.00;97081.00;1020027;29;20082;-60
2021/04/14 00:49:27;;;;;;;10.80;6.63;;;;;;;-1.17;100.00;97083.53;1023988;28;20421;-59
2021/04/14 00:49:58;;;;;;;11.35;7.28;;;;;;;-1.14;100.00;97083.38;1031889;28;20033;-60
2021/04/14 00:50:29;;;;;;;11.45;6.40;;;;;;;-1.16;100.00;97072.19;1031982;28;20022;-61
2021/04/14 00:51:00;;;;;;;10.38;6.40;;;;;;;-1.10;100.00;97082.31;1027979;28;20017;-60
2021/04/14 00:51:32;;;;;;;14.25;7.32;;;;;;;-1.09;100.00;97084.00;1031821;28;20096;-61
2021/04/14 00:52:03;;;;;;;10.05;5.97;;;;;;;-1.18;100.00;97079.25;1024056;28;20019;-60
2021/04/14 00:52:33;;;;;;;11.50;6.18;;;;;;;-1.12;100.00;97081.53;1027859;28;20029;-60
2021/04/14 00:53:04;;;;;;;10.20;5.85;;;;;;;-1.10;100.00;97079.69;1023976;29;20508;-61
2021/04/14 00:53:37;;;;;;;10.05;7.03;;;;;;;-1.12;100.00;97075.50;1023674;29;20029;-61
2021/04/14 00:54:09;;;;;;;10.00;6.05;;;;;;;-1.08;100.00;97082.22;1019976;29;20473;-61
2021/04/14 00:54:40;;;;;;;9.77;6.47;;;;;;;-1.04;100.00;97084.63;1035931;28;20438;-60
2021/04/14 00:55:13;;;;;;;10.77;6.57;;;;;;;-1.08;100.00;97088.31;1027929;28;20019;-60
2021/04/14 00:55:46;;;;;;;8.23;5.65;;;;;;;-1.01;100.00;97084.47;1027797;28;20544;-61
2021/04/14 00:56:16;;;;;;;10.65;6.32;;;;;;;-0.98;100.00;97075.66;1031995;28;20494;-61
2021/04/14 00:56:47;;;;;;;10.75;5.78;;;;;;;-0.98;100.00;97078.25;1027932;28;20011;-61
2021/04/14 00:57:18;;;;;;;12.13;6.70;;;;;;;-1.03;100.00;97075.91;1019919;29;20548;-60
2021/04/14 00:57:49;;;;;;;12.48;6.47;;;;;;;-1.01;100.00;97079.25;1031814;28;20069;-60
2021/04/14 00:58:19;;;;;;;13.05;6.90;;;;;;;-1.03;100.00;97078.50;1027879;28;20497;-61
2021/04/14 00:58:50;;;;;;;12.93;7.65;;;;;;;-1.03;100.00;97073.28;1027881;28;20018;-60
2021/04/14 00:59:21;;;;;;;10.70;6.68;;;;;;;-1.10;100.00;97061.44;1031887;28;20080;-61
2021/04/14 00:59:52;;;;;;;10.02;6.45;;;;;;;-1.09;100.00;97078.78;1019861;29;20535;-60
2021/04/14 01:00:33;;;;;;;10.68;6.35;;;;;;;-1.10;100.00;97078.88;1027931;28;20170;-61
2021/04/14 01:01:03;;;;;;;9.25;6.22;;;;;;;-1.07;100.00;97076.13;1027909;28;20023;-61
2021/04/14 01:01:34;;;;;;;9.95;6.30;;;;;;;-1.01;100.00;97079.25;1035934;28;20420;-60
2021/04/14 01:02:05;;;;;;;11.27;6.82;;;;;;;-1.02;100.00;97072.34;1027733;28;20105;-60
2021/04/14 01:02:36;;;;;;;21.58;6.75;;;;;;;-0.99;100.00;97074.81;1031848;28;20014;-59
2021/04/14 01:03:12;;;;;;;10.95;7.05;;;;;;;-0.98;100.00;97073.03;1031873;28;20448;-61
2021/04/14 01:03:42;;;;;;;10.20;6.47;;;;;;;-0.97;100.00;97072.13;1019826;29;20493;-61
2021/04/14 01:04:13;;;;;;;10.02;6.25;;;;;;;-0.95;100.00;97070.28;1023714;29;20110;-60
2021/04/14 01:04:44;;;;;;;12.50;6.68;;;;;;;-0.92;100.00;97066.66;1027873;28;20007;-60
2021/04/14 01:05:16;;;;;;;11.80;7.15;;;;;;;-0.91;100.00;97069.19;1031811;28;20014;-60
2021/04/14 01:05:48;;;;;;;10.63;6.28;;;;;;;-0.89;100.00;97071.72;1019996;28;20020;-61
2021/04/14 01:06:22;;;;;;;11.70;6.53;;;;;;;-0.88;100.00;97071.66;1023798;29;20106;-60
2021/04/14 01:06:53;;;;;;;10.38;6.35;;;;;;;-0.93;100.00;97073.66;1023799;29;20071;-62
2021/04/14 01:07:24;;;;;;;11.38;6.75;;;;;;;-0.99;100.00;97076.59;1019862;29;20095;-61
2021/04/14 01:07:55;;;;;;;13.82;7.22;;;;;;;-0.96;100.00;97074.66;1031807;28;20018;-61
2021/04/14 01:08:26;;;;;;;12.38;6.68;;;;;;;-0.99;100.00;97073.97;1035880;28;20539;-60
2021/04/14 01:08:58;;;;;;;12.65;6.75;;;;;;;-0.98;100.00;97075.66;1019983;29;20013;-61
2021/04/14 01:09:28;;;;;;;10.90;7.40;;;;;;;-0.97;100.00;97070.34;1016143;29;20571;-61
2021/04/14 01:09:59;;;;;;;11.45;6.70;;;;;;;-0.95;100.00;97075.50;1023804;29;20015;-61
2021/04/14 01:10:30;;;;;;;10.80;6.78;;;;;;;-1.02;100.00;97066.31;1019846;29;20027;-60
2021/04/14 01:11:01;;;;;;;10.77;6.75;;;;;;;-1.12;100.00;97045.06;1023811;28;20027;-61
2021/04/14 01:11:32;;;;;;;10.73;6.53;;;;;;;-1.05;100.00;97067.28;1027882;28;20460;-61
2021/04/14 01:12:03;;;;;;;12.20;7.78;;;;;;;-1.09;100.00;97063.16;1035902;28;20060;-60
2021/04/14 01:12:34;;;;;;;11.77;7.50;;;;;;;-1.10;100.00;97061.44;1019782;28;20032;-60
2021/04/14 01:13:05;;;;;;;13.50;6.75;;;;;;;-1.07;100.00;97066.53;1023929;29;20030;-60
2021/04/14 01:13:35;;;;;;;12.50;7.40;;;;;;;-1.05;100.00;97063.84;1019838;29;20050;-61
2021/04/14 01:14:06;;;;;;;12.32;7.35;;;;;;;-1.05;100.00;97067.28;1023847;28;20015;-61
2021/04/14 01:14:37;;;;;;;14.27;7.78;;;;;;;-1.01;100.00;97062.75;1035938;28;20384;-60
2021/04/14 01:15:09;;;;;;;12.65;7.78;;;;;;;-1.00;100.00;97064.47;1027827;28;20097;-61
2021/04/14 01:15:43;;;;;;;10.27;6.80;;;;;;;-1.00;100.00;97060.09;1023852;29;20019;-61
2021/04/14 01:16:14;;;;;;;11.35;6.85;;;;;;;-1.00;100.00;97060.09;1023841;28;20039;-60
2021/04/14 01:16:45;;;;;;;14.68;7.38;;;;;;;-1.06;100.00;97060.41;1035831;28;20392;-59
2021/04/14 01:17:16;;;;;;;10.18;6.50;;;;;;;-1.03;100.00;97059.38;1027855;28;20078;-62
2021/04/14 01:17:47;;;;;;;12.57;7.47;;;;;;;-1.01;100.00;97057.53;1031883;28;20511;-59
2021/04/14 01:18:21;;;;;;;12.15;7.32;;;;;;;-1.00;100.00;97060.09;1027892;28;20054;-61
2021/04/14 01:18:52;;;;;;;17.08;7.50;;;;;;;-0.99;100.00;97055.72;1023895;29;20094;-61
2021/04/14 01:19:23;;;;;;;11.70;7.38;;;;;;;-1.02;100.00;97066.31;1027851;28;20027;-60
2021/04/14 01:19:54;;;;;;;10.85;7.22;;;;;;;-1.10;100.00;97042.38;1027898;28;20019;-61
2021/04/14 01:20:25;;;;;;;13.98;8.55;;;;;;;-1.01;100.00;97060.16;1019874;29;20020;-61
2021/04/14 01:20:56;;;;;;;12.00;7.50;;;;;;;-1.02;100.00;97056.72;1027730;28;20463;-61
2021/04/14 01:21:37;;;;;;;12.10;7.90;;;;;;;-1.02;100.00;97061.94;1031786;28;20490;-60
2021/04/14 01:22:08;;;;;;;13.80;8.52;;;;;;;-1.10;100.00;97058.84;1023933;29;20015;-60
2021/04/14 01:22:39;;;;;;;13.02;7.72;;;;;;;-1.13;100.00;97056.41;1027685;28;20500;-61
2021/04/14 01:23:10;;;;;;;12.98;7.82;;;;;;;-1.19;100.00;97041.91;1031849;28;20033;-61
2021/04/14 01:23:41;;;;;;;11.88;7.47;;;;;;;-1.12;100.00;97057.25;1027674;28;20429;-61
2021/04/14 01:24:14;;;;;;;14.10;7.82;;;;;;;-1.15;100.00;97061.69;1023898;29;20023;-60
2021/04/14 01:24:45;;;;;;;14.77;8.77;;;;;;;-1.14;100.00;97058.16;1023804;29;20097;-61
2021/04/14 01:25:20;;;;;;;12.73;7.38;;;;;;;-1.18;100.00;97061.84;1023754;29;20015;-61
2021/04/14 01:25:52;;;;;;;13.50;7.43;;;;;;;-1.19;100.00;97065.38;1023903;29;20239;-60
2021/04/14 01:26:22;;;;;;;12.13;8.13;;;;;;;-1.17;100.00;97060.06;1023760;29;20110;-60
2021/04/14 01:26:54;;;;;;;13.80;7.88;;;;;;;-1.17;100.00;97062.69;1027633;28;20480;-61
2021/04/14 01:27:24;;;;;;;14.40;8.25;;;;;;;-1.18;100.00;97061.84;1027759;28;20022;-60
2021/04/14 01:27:55;;;;;;;11.43;7.95;;;;;;;-1.16;100.00;97053.97;1023841;29;20023;-61
2021/04/14 01:28:29;;;;;;;15.30;8.30;;;;;;;-1.16;100.00;97059.16;1031902;28;20026;-60
2021/04/14 01:29:00;;;;;;;13.40;8.45;;;;;;;-1.16;100.00;97054.78;1031717;28;20122;-62
2021/04/14 01:29:31;;;;;;;13.57;7.97;;;;;;;-1.13;100.00;97056.41;1019843;29;20023;-61
2021/04/14 01:30:14;;;;;;;12.13;8.25;;;;;;;-1.17;100.00;97062.69;1031722;28;20073;-61
2021/04/14 01:30:46;;;;;;;13.93;7.82;;;;;;;-1.20;100.00;97063.69;1023733;29;20082;-61
2021/04/14 01:31:18;;;;;;;14.93;8.57;;;;;;;-1.27;100.00;97057.09;1027780;28;20026;-61
2021/04/14 01:31:49;;;;;;;14.45;8.30;;;;;;;-1.30;100.00;97059.84;1027776;28;20105;-61
2021/04/14 01:32:21;;;;;;;15.43;8.70;;;;;;;-1.32;100.00;97059.09;1019862;29;20023;-61
2021/04/14 01:32:52;;;;;;;13.32;8.80;;;;;;;-1.34;100.00;97061.75;1019946;29;20023;-61
2021/04/14 01:33:25;;;;;;;13.98;8.70;;;;;;;-1.31;100.00;97057.31;1031691;28;20026;-62
2021/04/14 01:33:56;;;;;;;16.48;8.98;;;;;;;-1.36;100.00;97068.81;1027616;28;20017;-60
2021/04/14 01:34:27;;;;;;;15.40;9.10;;;;;;;-1.34;100.00;97063.53;1031832;28;20525;-61
2021/04/14 01:34:58;;;;;;;16.33;8.55;;;;;;;-1.37;100.00;97069.72;1023743;29;20059;-60
2021/04/14 01:35:29;;;;;;;14.85;8.45;;;;;;;-1.44;100.00;97070.09;1027620;28;20022;-62
2021/04/14 01:36:00;;;;;;;16.73;9.02;;;;;;;-1.45;100.00;97064.03;1031760;28;20011;-59
2021/04/14 01:36:32;;;;;;;14.75;8.27;;;;;;;-1.40;100.00;97069.88;1031805;28;20021;-61
2021/04/14 01:37:03;;;;;;;14.88;9.38;;;;;;;-1.38;100.00;97075.84;1023805;29;20047;-60
2021/04/14 01:37:34;;;;;;;12.88;7.90;;;;;;;-1.38;100.00;97070.63;1027699;28;20015;-61
2021/04/14 01:38:05;;;;;;;12.65;8.13;;;;;;;-1.41;100.00;97075.16;1027755;28;20027;-60
2021/04/14 01:38:36;;;;;;;12.73;7.90;;;;;;;-1.42;100.00;97076.91;1027827;28;20045;-61
2021/04/14 01:39:08;;;;;;;13.35;8.95;;;;;;;-1.44;100.00;97073.53;1031763;28;20397;-61
2021/04/14 01:39:39;;;;;;;17.27;9.05;;;;;;;-1.45;100.00;97079.66;1019763;29;20043;-61
2021/04/14 01:40:11;;;;;;;16.92;8.57;;;;;;;-1.52;100.00;97065.25;1023741;29;20027;-60
2021/04/14 01:40:42;;;;;;;13.25;8.43;;;;;;;-1.58;100.00;97065.56;1023744;28;20178;-60
2021/04/14 01:41:13;;;;;;;14.18;8.70;;;;;;;-1.57;100.00;97073.31;1031745;28;20022;-61
2021/04/14 01:41:44;;;;;;;13.90;7.93;;;;;;;-1.52;100.00;97060.03;1027703;28;20436;-60
2021/04/14 01:42:15;;;;;;;15.68;8.85;;;;;;;-1.58;100.00;97047.31;1039872;28;20455;-61
2021/04/14 01:42:45;;;;;;;14.05;8.00;;;;;;;-1.47;100.00;97060.66;1031681;28;20054;-61
2021/04/14 01:43:16;;;;;;;14.32;8.63;;;;;;;-1.47;100.00;97065.03;1031708;28;20026;-61
2021/04/14 01:43:47;;;;;;;14.35;8.27;;;;;;;-1.47;100.00;97067.66;1027543;28;20050;-59
2021/04/14 01:44:18;;;;;;;14.65;8.10;;;;;;;-1.48;100.00;97071.16;1023722;29;20028;-61
2021/04/14 01:44:49;;;;;;;13.15;7.97;;;;;;;-1.53;100.00;97068.78;1027743;28;20023;-59
2021/04/14 01:45:31;;;;;;;15.50;8.38;;;;;;;-1.52;100.00;97070.47;1028117;28;20473;-60
2021/04/14 01:46:02;;;;;;;14.65;8.27;;;;;;;-1.54;100.00;97072.28;1029544;28;20076;-61
2021/04/14 01:46:33;;;;;;;14.75;7.60;;;;;;;-1.53;100.00;97066.19;1027754;28;20061;-60
2021/04/14 01:47:04;;;;;;;13.52;8.88;;;;;;;-1.58;100.00;97062.94;1027757;28;20061;-60
2021/04/14 01:47:34;;;;;;;17.25;8.65;;;;;;;-1.56;100.00;97063.72;1027705;28;20149;-60
2021/04/14 01:48:06;;;;;;;11.90;7.13;;;;;;;-1.61;100.00;97057.88;1023746;29;20082;-61
2021/04/14 01:48:37;;;;;;;16.30;7.85;;;;;;;-1.54;100.00;97064.47;1035831;28;20095;-60
2021/04/14 01:49:08;;;;;;;13.98;8.10;;;;;;;-1.63;100.00;97063.16;1023683;29;20482;-61
2021/04/14 01:49:38;;;;;;;14.52;7.63;;;;;;;-1.60;100.00;97063.03;1027889;28;20125;-60
2021/04/14 01:50:09;;;;;;;13.10;7.55;;;;;;;-1.58;100.00;97062.94;1027579;28;20445;-60
2021/04/14 01:50:40;;;;;;;13.15;8.30;;;;;;;-1.58;100.00;97060.34;1023751;29;20023;-60
2021/04/14 01:51:13;;;;;;;13.00;8.10;;;;;;;-1.60;100.00;97057.81;1019799;29;20079;-60
2021/04/14 01:51:44;;;;;;;13.25;8.13;;;;;;;-1.60;100.00;97057.81;1020096;29;20015;-61
2021/04/14 01:52:15;;;;;;;12.63;7.70;;;;;;;-1.60;100.00;97059.56;1023943;29;20047;-61
2021/04/14 01:52:45;;;;;;;18.10;8.43;;;;;;;-1.65;100.00;97057.19;1015884;29;20478;-61
2021/04/14 01:53:18;;;;;;;14.52;7.93;;;;;;;-1.66;100.00;97052.06;1027652;28;20019;-61
2021/04/14 01:53:49;;;;;;;12.02;7.47;;;;;;;-1.60;100.00;97060.41;1035575;28;20288;-60
2021/04/14 01:54:19;;;;;;;16.85;8.82;;;;;;;-1.61;100.00;97063.09;1027656;28;20127;-61
2021/04/14 01:54:50;;;;;;;14.07;8.38;;;;;;;-1.62;100.00;97064.88;1031705;28;20477;-60
2021/04/14 01:55:23;;;;;;;15.05;8.93;;;;;;;-1.63;100.00;97054.50;1019702;29;20027;-61
2021/04/14 01:55:54;;;;;;;15.23;7.50;;;;;;;-1.63;100.00;97059.72;1031708;28;20519;-60
2021/04/14 01:56:24;;;;;;;13.80;8.10;;;;;;;-1.65;100.00;97057.19;1027614;28;20015;-61
2021/04/14 01:56:55;;;;;;;14.68;8.30;;;;;;;-1.66;100.00;97055.50;1031706;28;20018;-61
2021/04/14 01:57:26;;;;;;;16.50;8.55;;;;;;;-1.71;100.00;97058.34;1027769;28;20570;-61
2021/04/14 01:57:58;;;;;;;14.43;9.23;;;;;;;-1.82;100.00;97046.72;1023808;29;20035;-60
2021/04/14 01:58:31;;;;;;;16.27;8.75;;;;;;;-1.73;100.00;97060.13;1031592;28;20018;-60
2021/04/14 01:59:02;;;;;;;15.23;8.60;;;;;;;-1.71;100.00;97060.94;1019743;29;20111;-61
2021/04/14 01:59:33;;;;;;;13.18;8.18;;;;;;;-1.69;100.00;97066.03;1027747;28;20023;-60
2021/04/14 02:00:09;;;;;;;15.23;8.43;;;;;;;-1.70;100.00;97059.16;1031694;28;20084;-61
2021/04/14 02:00:45;;;;;;;14.98;9.23;;;;;;;-1.74;100.00;97049.81;1027805;28;20730;-62
2021/04/14 02:01:17;;;;;;;12.48;8.00;;;;;;;-1.72;100.00;97058.41;1023730;28;20019;-60
2021/04/14 02:01:48;;;;;;;13.93;8.65;;;;;;;-1.73;100.00;97057.53;1031732;28;20022;-59
2021/04/14 02:02:19;;;;;;;12.57;8.02;;;;;;;-1.72;100.00;97061.84;1023599;29;20519;-61
2021/04/14 02:02:50;;;;;;;15.55;9.00;;;;;;;-1.73;100.00;97052.31;1023735;29;20034;-60
2021/04/14 02:03:21;;;;;;;13.40;8.40;;;;;;;-1.73;100.00;97065.34;1027577;28;20015;-61
2021/04/14 02:03:52;;;;;;;14.52;8.73;;;;;;;-1.74;100.00;97062.84;1027454;28;20033;-60
2021/04/14 02:04:22;;;;;;;13.43;8.30;;;;;;;-1.77;100.00;97063.81;1027608;28;20027;-62
2021/04/14 02:04:53;;;;;;;15.43;8.13;;;;;;;-1.75;100.00;97061.16;1027667;28;20491;-61
2021/04/14 02:05:26;;;;;;;15.40;8.02;;;;;;;-1.75;100.00;97063.75;1031666;28;20084;-61
2021/04/14 02:05:57;;;;;;;15.02;9.40;;;;;;;-1.79;100.00;97057.00;1019712;29;20016;-61
2021/04/14 02:06:28;;;;;;;17.02;8.50;;;;;;;-1.76;100.00;97062.91;1027678;28;20022;-62
2021/04/14 02:06:59;;;;;;;14.48;8.57;;;;;;;-1.75;100.00;97064.59;1035728;28;20396;-60
2021/04/14 02:07:30;;;;;;;14.60;9.18;;;;;;;-1.75;100.00;97051.56;1027661;28;20023;-61
2021/04/14 02:08:01;;;;;;;15.68;9.13;;;;;;;-1.77;100.00;97058.59;1023682;28;20037;-61
2021/04/14 02:08:32;;;;;;;16.83;9.43;;;;;;;-1.76;100.00;97057.72;1027659;28;20030;-60
2021/04/14 02:09:04;;;;;;;13.60;9.23;;;;;;;-1.75;100.00;97056.78;1023748;29;20027;-60
2021/04/14 02:09:34;;;;;;;14.18;9.10;;;;;;;-1.75;100.00;97059.38;1031683;28;20023;-60
2021/04/14 02:10:07;;;;;;;20.30;9.10;;;;;;;-1.76;100.00;97062.03;1031736;28;20038;-60
2021/04/14 02:10:39;;;;;;;16.05;9.23;;;;;;;-1.75;100.00;97058.53;1035596;28;20021;-61
2021/04/14 02:11:11;;;;;;;13.90;8.77;;;;;;;-1.75;100.00;97056.78;1027638;28;20026;-60
2021/04/14 02:11:42;;;;;;;19.63;9.57;;;;;;;-1.83;100.00;97043.28;1023655;29;20602;-61
2021/04/14 02:12:12;;;;;;;17.55;9.00;;;;;;;-1.74;100.00;97053.25;1023714;29;20115;-61
2021/04/14 02:12:43;;;;;;;14.88;8.48;;;;;;;-1.72;100.00;97054.03;1023500;28;20030;-61
2021/04/14 02:13:23;;;;;;;13.43;8.68;;;;;;;-1.71;100.00;97055.72;1023689;29;20015;-61
2021/04/14 02:13:54;;;;;;;14.25;8.52;;;;;;;-1.72;100.00;97059.25;1023618;29;20024;-61
2021/04/14 02:14:25;;;;;;;16.00;9.23;;;;;;;-1.69;100.00;97050.41;1031634;28;20304;-60
2021/04/14 02:14:55;;;;;;;17.98;8.98;;;;;;;-1.68;100.00;97059.09;1027605;28;20520;-60
2021/04/14 02:15:28;;;;;;;13.55;8.73;;;;;;;-1.68;100.00;97052.13;1031671;28;20018;-61
2021/04/14 02:15:59;;;;;;;15.43;9.43;;;;;;;-1.67;100.00;97052.97;1027836;28;20015;-61
2021/04/14 02:16:30;;;;;;;16.50;9.80;;;;;;;-1.67;100.00;97052.97;1027613;28;20366;-59
2021/04/14 02:17:01;;;;;;;14.65;8.32;;;;;;;-1.66;100.00;97054.66;1027559;28;20481;-60
2021/04/14 02:17:31;;;;;;;15.55;8.98;;;;;;;-1.65;100.00;97048.53;1027696;28;20070;-61
2021/04/14 02:18:03;;;;;;;15.45;9.15;;;;;;;-1.66;100.00;97052.88;1027627;28;20034;-61
2021/04/14 02:18:34;;;;;;;14.88;8.98;;;;;;;-1.66;100.00;97052.88;1027626;28;20081;-60
2021/04/14 02:19:04;;;;;;;13.27;8.60;;;;;;;-1.66;100.00;97055.50;1019500;29;20294;-61
2021/04/14 02:19:35;;;;;;;17.73;8.88;;;;;;;-1.67;100.00;97047.75;1023650;28;20027;-61
2021/04/14 02:20:07;;;;;;;17.15;8.65;;;;;;;-1.67;100.00;97052.97;1031592;28;20073;-61
2021/04/14 02:20:38;;;;;;;14.43;8.10;;;;;;;-1.67;100.00;97052.97;1031726;28;20480;-60
2021/04/14 02:21:10;;;;;;;15.52;8.45;;;;;;;-1.67;100.00;97053.81;1023604;28;20294;-61
2021/04/14 02:21:40;;;;;;;14.07;8.02;;;;;;;-1.67;100.00;97052.97;1023640;29;20023;-60
2021/04/14 02:22:11;;;;;;;13.63;8.70;;;;;;;-1.64;100.00;97052.81;1023631;28;20505;-60
2021/04/14 02:22:42;;;;;;;14.90;8.98;;;;;;;-1.66;100.00;97046.84;1023670;29;20022;-60
2021/04/14 02:23:16;;;;;;;12.63;8.10;;;;;;;-1.64;100.00;97052.81;1023516;28;20490;-60
2021/04/14 02:23:47;;;;;;;13.93;8.60;;;;;;;-1.66;100.00;97047.69;1023660;29;20050;-60
2021/04/14 02:24:18;;;;;;;13.15;7.72;;;;;;;-1.64;100.00;97047.59;1023658;29;20259;-60
2021/04/14 02:24:49;;;;;;;16.05;8.65;;;;;;;-1.63;100.00;97054.50;1023795;29;20086;-60
2021/04/14 02:25:20;;;;;;;15.10;8.25;;;;;;;-1.62;100.00;97050.97;1023606;29;20020;-61
2021/04/14 02:25:54;;;;;;;15.75;8.43;;;;;;;-1.63;100.00;97044.94;1023749;29;20493;-60